Normed Antwerpen — V2DG9 — position and weather

sailwx.info

Track history (hours):
 
Tides and Currents Weather Stations Pressure Air Temp Water Temp Dewpoint Dewpoint Depression Visibility Wind Speed Wind Dir Waves Ship Positions

Normed Antwerpen

Last reported at 2014-Aug-21 07:32 UTC. Time now 2014-Aug-21 08:16 UTC.
Position N 36°57' E 026°14'.

Length 130 m; draft 6.2 m.

Type: Ship. MMSI: 305210993.

Date/timePositionNaut miles runAvg speedWind from/ knotsBaromVisibWave heightAir tempDewpointWater temp
2014-Aug-21 07:32N 36°57' E 026°14'1212.4
2014-Aug-21 06:33N 36°49' E 026°24'1313.1
2014-Aug-21 05:33N 36°40' E 026°36'3013.1
2014-Aug-21 03:16N 36°19' E 027°02'1413.1
2014-Aug-21 02:12N 36°09' E 027°15'1013.1
2014-Aug-21 01:28N 36°02' E 027°23'1312.5
2014-Aug-21 00:25N 35°53' E 027°35'1012.3
2014-Aug-20 23:33N 35°46' E 027°45'1412.9
2014-Aug-20 22:29N 35°46' E 028°02'  
2014-Aug-15 21:33N 34°44' E 034°45'1713.8
2014-Aug-15 20:19N 34°27' E 034°45'1213.7
2014-Aug-15 19:25N 34°14' E 034°46'1213.7
2014-Aug-15 18:31N 34°02' E 034°46'2814.0
2014-Aug-15 16:33N 33°34' E 034°47'1413.9
2014-Aug-15 15:33N 33°21' E 034°47'1513.7
2014-Aug-15 14:29N 33°06' E 034°47'2110.6
2014-Aug-15 12:33N 32°49' E 035°01'0 0.3
2014-Aug-15 11:23N 32°49' E 035°02'0 0.0
2014-Aug-15 03:08N 32°49' E 035°02'0 0.0
2014-Aug-15 01:31N 32°49' E 035°02'0 0.0
2014-Aug-14 21:22N 32°49' E 035°02'0 0.0
2014-Aug-14 17:17N 32°49' E 035°02'0 0.0
2014-Aug-14 16:32N 32°49' E 035°02'0 0.0
2014-Aug-14 14:28N 32°49' E 035°02'0 0.0
2014-Aug-14 11:24N 32°49' E 035°02'0 0.0
2014-Aug-14 10:32N 32°49' E 035°02'0 0.0
2014-Aug-14 04:30N 32°49' E 035°02'0 0.0
2014-Aug-13 23:28N 32°49' E 035°02'0 0.0
2014-Aug-13 22:09N 32°49' E 035°02'1 2.4
2014-Aug-13 21:33N 32°50' E 035°01'1110.2
2014-Aug-13 20:30N 32°53' E 034°49'1313.5
2014-Aug-13 19:33N 32°56' E 034°34'1413.7
2014-Aug-13 18:34N 32°59' E 034°18'1414.0
2014-Aug-13 17:33N 33°02' E 034°02'1413.8
2014-Aug-13 16:30N 33°09' E 033°47'1313.8
2014-Aug-13 15:33N 33°17' E 033°34'1413.6
2014-Aug-13 14:33N 33°25' E 033°21'1613.4
2014-Aug-13 13:21N 33°34' E 033°05'1113.0
2014-Aug-13 12:33N 33°40' E 032°55'1313.0
2014-Aug-13 11:33N 33°48' E 032°43'1313.1
2014-Aug-13 10:33N 33°57' E 032°31'1413.4
2014-Aug-13 09:32N 34°05' E 032°18'1513.9
2014-Aug-13 08:28N 34°15' E 032°05'1313.7
2014-Aug-13 07:33N 34°23' E 031°53'1413.6
2014-Aug-13 06:32N 34°32' E 031°40'1313.5
2014-Aug-13 05:34N 34°40' E 031°27'  
Track history (hours):
 
Tides and Currents Weather Stations Pressure Air Temp Water Temp Dewpoint Dewpoint Depression Visibility Wind Speed Wind Dir Waves Ship Positions

Normed Antwerpen

Last reported at 2014-Aug-21 07:32 UTC. Time now 2014-Aug-21 08:16 UTC.
Position N 36°57' E 026°14'.

Length 130 m; draft 6.2 m.

Type: Ship. MMSI: 305210993.

Date/timePositionNaut miles runAvg speedWind from/ knotsBaromVisibWave heightAir tempDewpointWater temp
2014-Aug-21 07:32N 36°57' E 026°14'1212.4
2014-Aug-21 06:33N 36°49' E 026°24'1313.1
2014-Aug-21 05:33N 36°40' E 026°36'3013.1
2014-Aug-21 03:16N 36°19' E 027°02'1413.1
2014-Aug-21 02:12N 36°09' E 027°15'1013.1
2014-Aug-21 01:28N 36°02' E 027°23'1312.5
2014-Aug-21 00:25N 35°53' E 027°35'1012.3
2014-Aug-20 23:33N 35°46' E 027°45'1412.9
2014-Aug-20 22:29N 35°46' E 028°02'  
2014-Aug-15 21:33N 34°44' E 034°45'1713.8
2014-Aug-15 20:19N 34°27' E 034°45'1213.7
2014-Aug-15 19:25N 34°14' E 034°46'1213.7
2014-Aug-15 18:31N 34°02' E 034°46'2814.0
2014-Aug-15 16:33N 33°34' E 034°47'1413.9
2014-Aug-15 15:33N 33°21' E 034°47'1513.7
2014-Aug-15 14:29N 33°06' E 034°47'2110.6
2014-Aug-15 12:33N 32°49' E 035°01'0 0.3
2014-Aug-15 11:23N 32°49' E 035°02'0 0.0
2014-Aug-15 03:08N 32°49' E 035°02'0 0.0
2014-Aug-15 01:31N 32°49' E 035°02'0 0.0
2014-Aug-14 21:22N 32°49' E 035°02'0 0.0
2014-Aug-14 17:17N 32°49' E 035°02'0 0.0
2014-Aug-14 16:32N 32°49' E 035°02'0 0.0
2014-Aug-14 14:28N 32°49' E 035°02'0 0.0
2014-Aug-14 11:24N 32°49' E 035°02'0 0.0
2014-Aug-14 10:32N 32°49' E 035°02'0 0.0
2014-Aug-14 04:30N 32°49' E 035°02'0 0.0
2014-Aug-13 23:28N 32°49' E 035°02'0 0.0
2014-Aug-13 22:09N 32°49' E 035°02'1 2.4
2014-Aug-13 21:33N 32°50' E 035°01'1110.2
2014-Aug-13 20:30N 32°53' E 034°49'1313.5
2014-Aug-13 19:33N 32°56' E 034°34'1413.7
2014-Aug-13 18:34N 32°59' E 034°18'1414.0
2014-Aug-13 17:33N 33°02' E 034°02'1413.8
2014-Aug-13 16:30N 33°09' E 033°47'1313.8
2014-Aug-13 15:33N 33°17' E 033°34'1413.6
2014-Aug-13 14:33N 33°25' E 033°21'1613.4
2014-Aug-13 13:21N 33°34' E 033°05'1113.0
2014-Aug-13 12:33N 33°40' E 032°55'1313.0
2014-Aug-13 11:33N 33°48' E 032°43'1313.1
2014-Aug-13 10:33N 33°57' E 032°31'1413.4
2014-Aug-13 09:32N 34°05' E 032°18'1513.9
2014-Aug-13 08:28N 34°15' E 032°05'1313.7
2014-Aug-13 07:33N 34°23' E 031°53'1413.6
2014-Aug-13 06:32N 34°32' E 031°40'1313.5
2014-Aug-13 05:34N 34°40' E 031°27'  

Dump ship's entire track history